This is the latest recevied weather packets stored in our database for station/object K1RFS. If no packets are shown the sender has not sent any weather packets the latest 10 day(s).
| Time | Temp. | Humidity | Pressure | Rain* | Wind** | Luminosity | Snow |
|---|---|---|---|---|---|---|---|
| 1788214503 | 24.44° C | 42% | 1002.1 hPa | 0 mm | - | 15 W/m² | - |
| 1788214198 | 24.44° C | 44% | 1001.7 hPa | 0 mm | - | 21 W/m² | - |
| 1788213893 | 25° C | 44% | 1001.7 hPa | 0 mm | - | 25 W/m² | - |
| 1788213588 | 25.56° C | 44% | 1001.6 hPa | 0 mm | - | 27 W/m² | - |
| 1788213284 | 25.56° C | 44% | 1001.4 hPa | 0 mm | - | 34 W/m² | - |
| 1788212980 | 26.11° C | 43% | 1001.4 hPa | 0 mm | - | 48 W/m² | - |
| 1788212677 | 26.67° C | 42% | 1001.5 hPa | 0 mm | - | 75 W/m² | - |
| 1788212373 | 27.22° C | 38% | 1001.3 hPa | 0 mm | - | 107 W/m² | - |
| 1788212069 | 27.22° C | 35% | 1001.5 hPa | 0 mm | - | 152 W/m² | - |
| 1788211769 | 27.78° C | 34% | 1001.5 hPa | 0 mm | - | 185 W/m² | - |
| 1788211466 | 27.78° C | 34% | 1001.7 hPa | 0 mm | - | 192 W/m² | - |
| 1788211165 | 28.33° C | 33% | 1001.7 hPa | 0 mm | - | 205 W/m² | - |
| 1788210860 | 28.89° C | 33% | 1001.5 hPa | 0 mm | - | 294 W/m² | - |
| 1788210560 | 28.89° C | 33% | 1001.6 hPa | 0 mm | - | 409 W/m² | - |
| 1788210255 | 27.78° C | 35% | 1001.6 hPa | 0 mm | - | 391 W/m² | - |
| 1788209951 | 27.78° C | 35% | 1001.5 hPa | 0 mm | - | 265 W/m² | - |
| 1788209646 | 27.78° C | 35% | 1001.6 hPa | 0 mm | - | 261 W/m² | - |
| 1788209341 | 27.78° C | 35% | 1002 hPa | 0 mm | - | 312 W/m² | - |
| 1788209040 | 27.78° C | 35% | 1001.8 hPa | 0 mm | - | 261 W/m² | - |
| 1788208740 | 27.78° C | 35% | 1002.3 hPa | 0 mm | - | 280 W/m² | - |
| 1788208435 | 27.78° C | 36% | 1002.1 hPa | 0 mm | - | 286 W/m² | - |
| 1788208133 | 27.78° C | 35% | 1002.2 hPa | 0 mm | - | 241 W/m² | - |
| 1788207828 | 28.33° C | 35% | 1002.3 hPa | 0 mm | - | 335 W/m² | - |
| 1788207528 | 28.33° C | 35% | 1002.1 hPa | 0 mm | - | 301 W/m² | - |
| 1788207227 | 27.78° C | 37% | 1002.2 hPa | 0 mm | - | 440 W/m² | - |
* Rain latest hour (hover to see other rain measurements)
** Current wind speed in m/s (hover to see current wind gust speed)